createdAt,value
2023-06-09T00:00:23.730Z,38.00
2023-06-09T00:01:23.688Z,37.95
2023-06-09T00:02:23.748Z,37.96
2023-06-09T00:03:23.812Z,38.02
2023-06-09T00:04:23.805Z,38.04
2023-06-09T00:05:23.842Z,38.01
2023-06-09T00:06:23.825Z,37.96
2023-06-09T00:07:23.835Z,38.02
2023-06-09T00:08:23.858Z,38.02
2023-06-09T00:09:23.891Z,38.05
2023-06-09T00:10:23.940Z,37.98
2023-06-09T00:11:23.939Z,38.00
2023-06-09T00:12:23.941Z,38.01
2023-06-09T00:13:23.958Z,38.07
2023-06-09T00:14:23.989Z,38.06
2023-06-09T00:15:23.999Z,38.02
2023-06-09T00:16:24.025Z,38.03
2023-06-09T00:17:24.211Z,38.04
2023-06-09T00:18:24.071Z,38.02
2023-06-09T00:19:24.121Z,38.06
2023-06-09T00:20:24.132Z,38.06
2023-06-09T00:21:24.132Z,38.05
2023-06-09T00:22:24.172Z,37.99
2023-06-09T00:23:24.210Z,37.98
2023-06-09T00:24:24.277Z,37.98
2023-06-09T00:25:24.263Z,37.95
2023-06-09T00:26:24.268Z,37.99
2023-06-09T00:27:24.331Z,38.00
2023-06-09T00:28:24.378Z,38.01
2023-06-09T00:29:24.376Z,38.02
2023-06-09T00:30:34.118Z,38.04
2023-06-09T00:31:25.431Z,38.08
2023-06-09T00:32:24.386Z,38.06
2023-06-09T00:33:24.379Z,38.06
2023-06-09T00:34:24.414Z,38.09
2023-06-09T00:35:24.376Z,38.07
2023-06-09T00:36:24.353Z,38.06
2023-06-09T00:37:24.346Z,38.08
2023-06-09T00:38:24.312Z,38.06
2023-06-09T00:39:24.359Z,38.10
2023-06-09T00:40:24.348Z,38.10
2023-06-09T00:41:24.321Z,38.09
2023-06-09T00:42:24.303Z,38.10
2023-06-09T00:43:24.305Z,38.12
2023-06-09T00:44:24.284Z,38.11
2023-06-09T00:45:24.371Z,38.09
2023-06-09T00:46:24.345Z,38.10
2023-06-09T00:47:24.383Z,38.09
2023-06-09T00:48:24.421Z,38.09
2023-06-09T00:49:24.389Z,38.08
2023-06-09T00:50:24.414Z,38.09
2023-06-09T00:51:24.447Z,38.08
2023-06-09T00:52:24.475Z,38.08
2023-06-09T00:53:24.512Z,38.05
2023-06-09T00:54:24.457Z,38.08
2023-06-09T00:55:24.508Z,38.03
2023-06-09T00:56:24.640Z,38.05
2023-06-09T00:57:24.582Z,38.02
2023-06-09T00:58:24.590Z,38.02
2023-06-09T00:59:24.562Z,38.06
2023-06-09T01:00:24.691Z,38.02
2023-06-09T01:01:24.759Z,38.02
2023-06-09T01:02:25.209Z,38.03
2023-06-09T01:03:24.774Z,38.04
2023-06-09T01:04:24.687Z,38.02
2023-06-09T01:05:24.697Z,38.04
2023-06-09T01:06:24.690Z,38.07
2023-06-09T01:07:24.699Z,38.08
2023-06-09T01:08:24.741Z,38.05
2023-06-09T01:09:24.750Z,38.08
2023-06-09T01:10:24.758Z,38.06
2023-06-09T01:11:24.734Z,38.07
2023-06-09T01:12:24.780Z,38.08
2023-06-09T01:13:24.775Z,38.03
2023-06-09T01:14:24.767Z,37.98
2023-06-09T01:15:24.780Z,38.02
2023-06-09T01:16:24.857Z,38.03
2023-06-09T01:17:25.698Z,38.02
2023-06-09T01:18:24.817Z,38.03
2023-06-09T01:19:24.814Z,38.02
2023-06-09T01:20:24.850Z,38.06
2023-06-09T01:21:25.695Z,38.05
2023-06-09T01:22:24.855Z,38.05
2023-06-09T01:23:24.913Z,38.05
2023-06-09T01:24:24.907Z,38.04
2023-06-09T01:25:24.896Z,38.01
2023-06-09T01:26:24.958Z,38.04
2023-06-09T01:27:24.920Z,38.03
2023-06-09T01:28:24.936Z,38.03
2023-06-09T01:29:24.947Z,38.04
2023-06-09T01:30:24.963Z,38.04
2023-06-09T01:31:25.051Z,38.06
2023-06-09T01:32:25.277Z,38.03
2023-06-09T01:33:24.956Z,38.07
2023-06-09T01:34:25.006Z,38.06
2023-06-09T01:35:26.045Z,38.02
2023-06-09T01:36:25.074Z,37.99
2023-06-09T01:37:24.993Z,37.99
2023-06-09T01:38:25.701Z,38.03
2023-06-09T01:39:24.963Z,38.05
2023-06-09T01:40:24.971Z,38.04
2023-06-09T01:41:24.943Z,38.05
2023-06-09T01:42:24.958Z,38.06
2023-06-09T01:43:24.957Z,38.09
2023-06-09T01:44:24.926Z,38.07
2023-06-09T01:45:24.922Z,38.05
2023-06-09T01:46:24.915Z,38.06
2023-06-09T01:47:24.965Z,38.08
2023-06-09T01:48:24.899Z,37.98
2023-06-09T01:49:24.899Z,38.03
2023-06-09T01:50:24.933Z,38.01
2023-06-09T01:51:24.875Z,38.02
2023-06-09T01:52:24.899Z,38.03
2023-06-09T01:53:24.867Z,38.00
2023-06-09T01:54:24.871Z,38.02
2023-06-09T01:55:24.875Z,38.05
2023-06-09T01:56:24.849Z,38.06
2023-06-09T01:57:24.835Z,38.02
2023-06-09T01:58:24.849Z,38.01
2023-06-09T01:59:24.834Z,38.05
2023-06-09T02:00:24.821Z,37.99
2023-06-09T02:01:24.831Z,38.02
2023-06-09T02:02:24.832Z,38.00
2023-06-09T02:03:24.830Z,38.04
2023-06-09T02:04:24.802Z,38.00
2023-06-09T02:05:24.753Z,38.05
2023-06-09T02:06:24.772Z,37.98
2023-06-09T02:07:24.817Z,38.03
2023-06-09T02:08:25.704Z,38.00
2023-06-09T02:09:24.763Z,38.02
2023-06-09T02:10:24.752Z,38.05
2023-06-09T02:11:24.757Z,38.05
2023-06-09T02:12:24.725Z,38.07
2023-06-09T02:13:24.723Z,38.03
2023-06-09T02:14:24.731Z,38.04
2023-06-09T02:15:24.749Z,38.01
2023-06-09T02:16:24.694Z,38.03
2023-06-09T02:17:24.743Z,38.00
2023-06-09T02:18:25.684Z,38.03
2023-06-09T02:19:24.681Z,38.05
2023-06-09T02:20:24.652Z,38.03
2023-06-09T02:21:24.658Z,38.06
2023-06-09T02:22:24.671Z,38.04
2023-06-09T02:23:24.671Z,38.03
2023-06-09T02:24:24.663Z,38.00
2023-06-09T02:25:24.657Z,37.99
2023-06-09T02:27:24.640Z,38.00
2023-06-09T02:28:24.596Z,38.03
2023-06-09T02:29:24.584Z,38.00
2023-06-09T02:30:24.627Z,38.07
2023-06-09T02:31:24.640Z,38.07
2023-06-09T02:32:24.660Z,38.09
2023-06-09T02:33:24.554Z,38.09
2023-06-09T02:34:24.586Z,38.08
2023-06-09T02:35:24.611Z,38.08
2023-06-09T02:36:24.556Z,38.09
2023-06-09T02:37:24.581Z,38.07
2023-06-09T02:38:24.542Z,38.07
2023-06-09T02:39:24.547Z,38.06
2023-06-09T02:40:24.599Z,38.08
2023-06-09T02:41:24.493Z,38.01
2023-06-09T02:42:24.519Z,37.99
2023-06-09T02:43:24.496Z,38.04
2023-06-09T02:44:24.507Z,37.91
2023-06-09T02:45:24.476Z,37.91
2023-06-09T02:46:24.604Z,37.91
2023-06-09T02:47:24.458Z,37.92
2023-06-09T02:48:24.474Z,37.88
2023-06-09T02:49:24.441Z,37.93
2023-06-09T02:50:24.585Z,37.95
2023-06-09T02:51:24.450Z,37.92
2023-06-09T02:52:24.432Z,37.92
2023-06-09T02:53:24.460Z,37.94
2023-06-09T02:54:24.396Z,37.97
2023-06-09T02:55:24.430Z,37.96
2023-06-09T02:56:24.435Z,37.93
2023-06-09T02:57:24.400Z,37.98
2023-06-09T02:58:24.382Z,37.97
2023-06-09T02:59:24.369Z,37.95
2023-06-09T03:00:24.432Z,37.98
2023-06-09T03:01:24.374Z,38.00
2023-06-09T03:02:24.467Z,38.01
2023-06-09T03:03:24.519Z,38.02
2023-06-09T03:04:24.342Z,38.00
2023-06-09T03:05:24.410Z,37.98
2023-06-09T03:06:24.343Z,38.02
2023-06-09T03:07:24.293Z,38.06
2023-06-09T03:08:24.323Z,37.99
2023-06-09T03:09:24.338Z,38.04
2023-06-09T03:10:24.392Z,38.05
2023-06-09T03:11:24.329Z,38.07
2023-06-09T03:12:24.341Z,38.07
2023-06-09T03:13:24.341Z,38.08
2023-06-09T03:14:24.390Z,38.07
2023-06-09T03:15:24.428Z,38.00
2023-06-09T03:16:24.518Z,37.98
2023-06-09T03:17:24.494Z,37.98
2023-06-09T03:18:24.445Z,37.95
2023-06-09T03:19:24.474Z,37.93
2023-06-09T03:20:24.466Z,37.89
2023-06-09T03:21:24.505Z,37.90
2023-06-09T03:22:24.508Z,37.90
2023-06-09T03:23:24.521Z,37.88
2023-06-09T03:24:24.575Z,37.91
2023-06-09T03:25:24.577Z,37.88
2023-06-09T03:26:24.577Z,37.95
2023-06-09T03:27:24.585Z,37.90
2023-06-09T03:28:24.643Z,37.94
2023-06-09T03:29:24.594Z,37.91
2023-06-09T03:30:24.645Z,37.91
2023-06-09T03:31:24.701Z,37.85
2023-06-09T03:32:24.707Z,37.88
2023-06-09T03:33:24.684Z,37.84
2023-06-09T03:34:24.702Z,37.85
2023-06-09T03:35:24.747Z,37.82
2023-06-09T03:36:24.769Z,37.87
2023-06-09T03:37:24.756Z,37.91
2023-06-09T03:38:24.814Z,37.93
2023-06-09T03:39:24.819Z,37.91
2023-06-09T03:40:24.839Z,37.90
2023-06-09T03:41:24.843Z,37.90
2023-06-09T03:42:24.839Z,37.88
2023-06-09T03:43:24.882Z,37.88
2023-06-09T03:44:24.873Z,37.93
2023-06-09T03:45:24.960Z,37.94
2023-06-09T03:46:24.968Z,38.01
2023-06-09T03:47:24.976Z,37.98
2023-06-09T03:48:24.961Z,37.99
2023-06-09T03:49:24.970Z,38.03
2023-06-09T03:50:24.979Z,38.02
2023-06-09T03:51:25.014Z,38.04
2023-06-09T03:52:25.022Z,38.04
2023-06-09T03:53:25.049Z,37.97
2023-06-09T03:54:25.092Z,37.97
2023-06-09T03:55:25.100Z,38.03
2023-06-09T03:56:25.109Z,38.02
2023-06-09T03:57:25.105Z,37.99
2023-06-09T03:58:25.129Z,37.97
2023-06-09T03:59:25.162Z,37.93
2023-06-09T04:00:25.142Z,37.90
2023-06-09T04:01:25.138Z,37.90
2023-06-09T04:02:25.397Z,37.91
2023-06-09T04:03:25.283Z,37.87
2023-06-09T04:04:25.252Z,37.87
2023-06-09T04:05:25.266Z,37.86
2023-06-09T04:06:25.267Z,37.83
2023-06-09T04:07:25.230Z,37.86
2023-06-09T04:08:25.242Z,37.83
2023-06-09T04:09:25.279Z,37.84
2023-06-09T04:10:25.356Z,37.84
2023-06-09T04:11:25.332Z,37.82
2023-06-09T04:12:25.334Z,37.83
2023-06-09T04:13:25.352Z,37.84
2023-06-09T04:14:25.353Z,37.80
2023-06-09T04:15:25.383Z,37.82
2023-06-09T04:16:25.435Z,37.83
2023-06-09T04:17:25.436Z,37.85
2023-06-09T04:18:25.429Z,37.80
2023-06-09T04:19:25.481Z,37.80
2023-06-09T04:20:25.513Z,37.75
2023-06-09T04:21:25.509Z,37.77
2023-06-09T04:22:25.493Z,37.79
2023-06-09T04:23:25.517Z,37.79
2023-06-09T04:24:25.531Z,37.78
2023-06-09T04:25:25.590Z,37.80
2023-06-09T04:26:25.557Z,37.85
2023-06-09T04:27:25.566Z,37.85
2023-06-09T04:28:25.640Z,37.83
2023-06-09T04:29:25.668Z,37.80
2023-06-09T04:30:25.671Z,37.79
2023-06-09T04:31:25.731Z,37.76
2023-06-09T04:32:25.837Z,37.84
2023-06-09T04:33:25.696Z,37.86
2023-06-09T04:34:25.718Z,37.88
2023-06-09T04:35:25.734Z,37.83
2023-06-09T04:36:25.728Z,37.83
2023-06-09T04:37:25.786Z,37.81
2023-06-09T04:38:25.778Z,37.81
2023-06-09T04:39:25.797Z,37.80
2023-06-09T04:40:25.824Z,37.77
2023-06-09T04:41:25.841Z,37.82
2023-06-09T04:42:25.828Z,37.81
2023-06-09T04:43:25.840Z,37.81
2023-06-09T04:44:25.893Z,37.82
2023-06-09T04:45:25.895Z,37.79
2023-06-09T04:46:25.939Z,37.76
2023-06-09T04:47:26.132Z,37.74
2023-06-09T04:48:25.950Z,37.73
2023-06-09T04:49:25.905Z,37.71
2023-06-09T04:50:25.972Z,37.73
2023-06-09T04:51:25.967Z,37.71
2023-06-09T04:52:25.985Z,37.69
2023-06-09T04:53:28.027Z,37.68
2023-06-09T04:54:25.992Z,37.68
2023-06-09T04:55:26.046Z,37.68
2023-06-09T04:56:26.054Z,37.67
2023-06-09T04:57:26.057Z,37.69
2023-06-09T04:58:26.040Z,37.69
2023-06-09T04:59:26.091Z,37.71
2023-06-09T05:00:26.084Z,37.68
2023-06-09T05:01:26.144Z,37.67
2023-06-09T05:02:26.159Z,37.67
2023-06-09T05:03:26.118Z,37.67
2023-06-09T05:04:26.134Z,37.69
2023-06-09T05:05:26.328Z,37.67
2023-06-09T05:06:26.162Z,37.67
2023-06-09T05:07:26.178Z,37.67
2023-06-09T05:08:26.215Z,37.66
2023-06-09T05:09:26.215Z,37.66
2023-06-09T05:10:26.196Z,37.64
2023-06-09T05:11:26.229Z,37.63
2023-06-09T05:12:26.256Z,37.63
2023-06-09T05:13:26.263Z,37.62
2023-06-09T05:14:26.266Z,37.64
2023-06-09T05:15:26.341Z,37.65
2023-06-09T05:16:26.319Z,37.64
2023-06-09T05:17:26.398Z,37.64
2023-06-09T05:18:26.342Z,37.63
2023-06-09T05:19:26.373Z,37.65
2023-06-09T05:20:26.408Z,37.61
2023-06-09T05:21:26.431Z,37.63
2023-06-09T05:22:26.451Z,37.62
2023-06-09T05:23:26.419Z,37.61
2023-06-09T05:24:26.455Z,37.64
2023-06-09T05:25:26.542Z,37.63
2023-06-09T05:26:26.475Z,37.63
2023-06-09T05:27:26.496Z,37.63
2023-06-09T05:28:26.504Z,37.64
2023-06-09T05:29:26.535Z,37.64
2023-06-09T05:30:26.549Z,37.61
2023-06-09T05:31:26.566Z,37.61
2023-06-09T05:32:26.616Z,37.63
2023-06-09T05:33:26.578Z,37.63
2023-06-09T05:34:26.552Z,37.60
2023-06-09T05:35:26.615Z,37.62
2023-06-09T05:36:26.588Z,37.62
2023-06-09T05:37:26.578Z,37.62
2023-06-09T05:38:26.583Z,37.62
2023-06-09T05:39:26.665Z,37.64
2023-06-09T05:40:26.660Z,37.60
2023-06-09T05:41:26.653Z,37.61
2023-06-09T05:42:26.673Z,37.62
2023-06-09T05:43:26.684Z,37.60
2023-06-09T05:44:26.688Z,37.60
2023-06-09T05:45:26.733Z,37.60
2023-06-09T05:46:26.865Z,37.61
2023-06-09T05:47:26.726Z,37.59
2023-06-09T05:48:26.767Z,37.60
2023-06-09T05:49:26.795Z,37.60
2023-06-09T05:50:26.732Z,37.59
2023-06-09T05:51:26.768Z,37.60
2023-06-09T05:52:29.316Z,37.60
2023-06-09T05:53:26.742Z,37.56
2023-06-09T05:54:26.783Z,37.57
2023-06-09T05:55:26.746Z,37.58
2023-06-09T05:56:26.725Z,37.59
2023-06-09T05:57:26.787Z,37.58
2023-06-09T05:58:26.724Z,37.55
2023-06-09T05:59:26.717Z,37.57
2023-06-09T06:00:26.700Z,37.57
2023-06-09T06:01:26.820Z,37.56
2023-06-09T06:02:26.823Z,37.56
2023-06-09T06:03:26.766Z,37.56
2023-06-09T06:04:26.724Z,37.57
2023-06-09T06:05:26.679Z,37.55
2023-06-09T06:06:26.665Z,37.55
2023-06-09T06:07:26.661Z,37.55
2023-06-09T06:08:26.649Z,37.56
2023-06-09T06:09:26.659Z,37.57
2023-06-09T06:10:26.647Z,37.56
2023-06-09T06:11:26.650Z,37.55
2023-06-09T06:12:26.613Z,37.58
2023-06-09T06:13:26.605Z,37.56
2023-06-09T06:14:26.615Z,37.56
2023-06-09T06:15:26.588Z,37.54
2023-06-09T06:16:26.713Z,37.55
2023-06-09T06:17:26.606Z,37.54
2023-06-09T06:18:26.591Z,37.54
2023-06-09T06:19:26.540Z,37.52
2023-06-09T06:20:26.577Z,37.56
2023-06-09T06:21:26.567Z,37.56
2023-06-09T06:22:26.549Z,37.55
2023-06-09T06:23:26.559Z,37.54
2023-06-09T06:24:26.562Z,37.55
2023-06-09T06:25:26.516Z,37.54
2023-06-09T06:26:26.528Z,37.55
2023-06-09T06:27:26.528Z,37.55
2023-06-09T06:28:26.508Z,37.55
2023-06-09T06:29:26.509Z,37.54
2023-06-09T06:30:26.493Z,37.54
2023-06-09T06:31:26.498Z,37.55
2023-06-09T06:32:26.519Z,37.54
2023-06-09T06:33:26.479Z,37.51
2023-06-09T06:34:26.448Z,37.52
2023-06-09T06:35:26.451Z,37.51
2023-06-09T06:36:26.485Z,37.47
2023-06-09T06:37:26.467Z,37.49
2023-06-09T06:38:26.435Z,37.49
2023-06-09T06:39:28.765Z,37.47
2023-06-09T06:40:26.549Z,37.49
2023-06-09T06:41:26.552Z,37.49
2023-06-09T06:42:26.522Z,37.49
2023-06-09T06:43:26.571Z,37.47
2023-06-09T06:44:26.571Z,37.47
2023-06-09T06:45:26.550Z,37.49
2023-06-09T06:46:26.676Z,37.48
2023-06-09T06:47:26.610Z,37.50
2023-06-09T06:48:26.596Z,37.47
2023-06-09T06:49:26.628Z,37.44
2023-06-09T06:50:27.097Z,37.45
2023-06-09T06:51:26.643Z,37.45
2023-06-09T06:52:26.662Z,37.46
2023-06-09T06:53:26.669Z,37.48
2023-06-09T06:54:26.674Z,37.49
2023-06-09T06:55:29.258Z,37.45
2023-06-09T06:56:26.689Z,37.46
2023-06-09T06:57:26.640Z,37.47
2023-06-09T06:58:26.678Z,37.48
2023-06-09T06:59:26.668Z,37.47
2023-06-09T07:00:26.684Z,37.47
2023-06-09T07:01:26.746Z,37.47
2023-06-09T07:02:26.664Z,37.47
2023-06-09T07:03:26.611Z,37.47
2023-06-09T07:04:26.664Z,37.46
2023-06-09T07:05:26.620Z,37.47
2023-06-09T07:06:26.613Z,37.47
2023-06-09T07:07:26.588Z,37.47
2023-06-09T07:08:26.552Z,37.45
2023-06-09T07:09:26.576Z,37.47
2023-06-09T07:10:26.579Z,37.43
2023-06-09T07:11:26.562Z,37.41
2023-06-09T07:12:26.549Z,37.41
2023-06-09T07:13:26.540Z,37.40
2023-06-09T07:14:26.551Z,37.42
2023-06-09T07:15:26.548Z,37.44
2023-06-09T07:16:26.527Z,37.43
2023-06-09T07:17:26.658Z,37.47
2023-06-09T07:18:26.671Z,37.46
2023-06-09T07:19:26.508Z,37.46
2023-06-09T07:20:26.511Z,37.48
2023-06-09T07:21:26.496Z,37.49
2023-06-09T07:22:26.489Z,37.51
2023-06-09T07:23:26.464Z,37.52
2023-06-09T07:24:26.485Z,37.53
2023-06-09T07:25:26.448Z,37.54
2023-06-09T07:26:26.480Z,37.52
2023-06-09T07:27:26.466Z,37.53
2023-06-09T07:28:26.471Z,37.51
2023-06-09T07:29:26.428Z,37.51
2023-06-09T07:30:26.431Z,37.50
2023-06-09T07:31:26.485Z,37.48
2023-06-09T07:32:26.502Z,37.46
2023-06-09T07:33:26.430Z,37.45
2023-06-09T07:34:26.428Z,37.47
2023-06-09T07:35:26.380Z,37.46
2023-06-09T07:36:26.404Z,37.45
2023-06-09T07:37:26.517Z,37.43
2023-06-09T07:38:26.367Z,37.42
2023-06-09T07:39:26.344Z,37.43
2023-06-09T07:40:26.913Z,37.42
2023-06-09T07:41:26.362Z,37.43
2023-06-09T07:42:26.344Z,37.43
2023-06-09T07:43:26.350Z,37.43
2023-06-09T07:44:26.325Z,37.44
2023-06-09T07:45:26.312Z,37.43
2023-06-09T07:46:26.388Z,37.43
2023-06-09T07:47:26.341Z,37.44
2023-06-09T07:48:26.292Z,37.42
2023-06-09T07:49:26.289Z,37.40
2023-06-09T07:50:26.281Z,37.41
2023-06-09T07:51:26.281Z,37.42
2023-06-09T07:52:26.273Z,37.42
2023-06-09T07:53:26.244Z,37.41
2023-06-09T07:54:26.254Z,37.40
2023-06-09T07:55:26.213Z,37.42
2023-06-09T07:56:26.349Z,37.43
2023-06-09T07:57:26.223Z,37.43
2023-06-09T07:58:26.231Z,37.41
2023-06-09T07:59:26.211Z,37.38
2023-06-09T08:00:28.662Z,37.39
2023-06-09T08:01:26.457Z,37.39
2023-06-09T08:02:26.499Z,37.39
2023-06-09T08:03:26.529Z,37.41
2023-06-09T08:04:26.578Z,37.40
2023-06-09T08:05:26.520Z,37.39
2023-06-09T08:06:26.540Z,37.38
2023-06-09T08:07:26.521Z,37.40
2023-06-09T08:08:26.578Z,37.40
2023-06-09T08:09:26.533Z,37.38
2023-06-09T08:10:26.558Z,37.41
2023-06-09T08:11:26.617Z,37.37
2023-06-09T08:12:26.583Z,37.38
2023-06-09T08:13:26.608Z,37.37
2023-06-09T08:14:26.614Z,37.39
2023-06-09T08:15:26.628Z,37.39
2023-06-09T08:16:26.665Z,37.36
2023-06-09T08:17:26.641Z,37.37
2023-06-09T08:18:26.640Z,37.38
2023-06-09T08:19:26.629Z,37.40
2023-06-09T08:20:26.673Z,37.37
2023-06-09T08:21:26.690Z,37.40
2023-06-09T08:22:26.644Z,37.36
2023-06-09T08:23:26.701Z,37.38
2023-06-09T08:24:27.340Z,37.35
2023-06-09T08:25:26.708Z,37.35
2023-06-09T08:26:26.714Z,37.36
2023-06-09T08:27:26.741Z,37.36
2023-06-09T08:28:26.753Z,37.38
2023-06-09T08:29:26.788Z,37.38
2023-06-09T08:30:26.758Z,37.36
2023-06-09T08:31:26.787Z,37.37
2023-06-09T08:32:26.799Z,37.39
2023-06-09T08:33:26.741Z,37.37
2023-06-09T08:34:26.805Z,37.35
2023-06-09T08:35:26.851Z,37.39
2023-06-09T08:36:26.807Z,37.37
2023-06-09T08:37:26.822Z,37.36
2023-06-09T08:38:26.853Z,37.37
2023-06-09T08:39:26.817Z,37.34
2023-06-09T08:40:26.829Z,37.37
2023-06-09T08:41:26.884Z,37.36
2023-06-09T08:42:26.878Z,37.34
2023-06-09T08:43:26.863Z,37.36
2023-06-09T08:44:26.876Z,37.35
2023-06-09T08:45:26.869Z,37.36
2023-06-09T08:46:26.957Z,37.34
2023-06-09T08:47:26.978Z,37.34
2023-06-09T08:48:26.932Z,37.36
2023-06-09T08:49:26.900Z,37.34
2023-06-09T08:50:26.910Z,37.34
2023-06-09T08:51:26.933Z,37.35
2023-06-09T08:52:26.961Z,37.34
2023-06-09T08:53:26.917Z,37.34
2023-06-09T08:54:26.924Z,37.35
2023-06-09T08:55:26.944Z,37.33
2023-06-09T08:56:26.934Z,37.32
2023-06-09T08:57:26.963Z,37.36
2023-06-09T08:58:27.002Z,37.34
2023-06-09T08:59:26.952Z,37.32
2023-06-09T09:00:27.013Z,37.35
2023-06-09T09:01:27.049Z,37.34
2023-06-09T09:02:27.042Z,37.36
2023-06-09T09:03:27.074Z,37.35
2023-06-09T09:04:26.983Z,37.36
2023-06-09T09:05:27.022Z,37.34
2023-06-09T09:06:27.046Z,37.34
2023-06-09T09:07:27.047Z,37.33
2023-06-09T09:08:27.063Z,37.35
2023-06-09T09:09:30.219Z,37.34
2023-06-09T09:10:27.076Z,37.35
2023-06-09T09:11:27.080Z,37.33
2023-06-09T09:12:27.090Z,37.34
2023-06-09T09:13:27.074Z,37.35
2023-06-09T09:14:27.044Z,37.35
2023-06-09T09:15:27.066Z,37.34
2023-06-09T09:16:27.059Z,37.34
2023-06-09T09:17:27.029Z,37.34
2023-06-09T09:18:27.024Z,37.34
2023-06-09T09:19:27.009Z,37.35
2023-06-09T09:20:26.970Z,37.35
2023-06-09T09:21:26.989Z,37.34
2023-06-09T09:22:27.004Z,37.34
2023-06-09T09:23:26.951Z,37.32
2023-06-09T09:24:26.958Z,37.34
2023-06-09T09:25:27.901Z,37.31
2023-06-09T09:26:26.960Z,37.34
2023-06-09T09:27:26.934Z,37.34
2023-06-09T09:28:26.935Z,37.34
2023-06-09T09:29:26.907Z,37.34
2023-06-09T09:30:26.907Z,37.35
2023-06-09T09:31:26.984Z,37.34
2023-06-09T09:32:29.322Z,37.31
2023-06-09T09:33:26.903Z,37.33
2023-06-09T09:34:26.860Z,37.32
2023-06-09T09:35:26.864Z,37.33
2023-06-09T09:36:26.867Z,37.35
2023-06-09T09:37:26.847Z,37.30
2023-06-09T09:38:26.885Z,37.31
2023-06-09T09:39:26.821Z,37.32
2023-06-09T09:40:26.851Z,37.31
2023-06-09T09:41:26.841Z,37.33
2023-06-09T09:42:26.836Z,37.32
2023-06-09T09:43:26.812Z,37.30
2023-06-09T09:44:26.829Z,37.32
2023-06-09T09:45:26.801Z,37.32
2023-06-09T09:46:26.857Z,37.32
2023-06-09T09:47:26.875Z,37.32
2023-06-09T09:48:26.760Z,37.31
2023-06-09T09:49:26.784Z,37.34
2023-06-09T09:50:26.752Z,37.33
2023-06-09T09:51:26.765Z,37.34
2023-06-09T09:52:26.736Z,37.34
2023-06-09T09:53:26.753Z,37.32
2023-06-09T09:54:26.760Z,37.31
2023-06-09T09:55:26.701Z,37.32
2023-06-09T09:56:26.743Z,37.33
2023-06-09T09:57:26.690Z,37.32
2023-06-09T09:58:26.698Z,37.33
2023-06-09T09:59:26.703Z,37.32
2023-06-09T10:00:26.719Z,37.30
2023-06-09T10:01:26.724Z,37.33
2023-06-09T10:02:27.640Z,37.32
2023-06-09T10:03:26.793Z,37.33
2023-06-09T10:04:26.651Z,37.33
2023-06-09T10:05:26.624Z,37.31
2023-06-09T10:06:26.647Z,37.32
2023-06-09T10:07:26.636Z,37.30
2023-06-09T10:08:26.630Z,37.32
2023-06-09T10:09:26.624Z,37.30
2023-06-09T10:10:26.615Z,37.31
2023-06-09T10:11:26.604Z,37.33
2023-06-09T10:12:26.590Z,37.32
2023-06-09T10:13:26.629Z,37.31
2023-06-09T10:14:26.628Z,37.30
2023-06-09T10:15:26.644Z,37.32
2023-06-09T10:16:26.733Z,37.30
2023-06-09T10:17:26.808Z,37.29
2023-06-09T10:18:26.777Z,37.31
2023-06-09T10:19:26.824Z,37.31
2023-06-09T10:20:26.825Z,37.31
2023-06-09T10:21:26.825Z,37.30
2023-06-09T10:22:26.853Z,37.29
2023-06-09T10:23:26.876Z,37.31
2023-06-09T10:24:26.877Z,37.30
2023-06-09T10:25:26.915Z,37.30
2023-06-09T10:26:27.952Z,37.30
2023-06-09T10:27:26.951Z,37.30
2023-06-09T10:28:26.954Z,37.31
2023-06-09T10:29:26.968Z,37.29
2023-06-09T10:30:26.991Z,37.29
2023-06-09T10:31:27.049Z,37.28
2023-06-09T10:32:27.125Z,37.29
2023-06-09T10:33:27.172Z,37.32
2023-06-09T10:34:27.116Z,37.30
2023-06-09T10:35:27.145Z,37.30
2023-06-09T10:36:27.148Z,37.29
2023-06-09T10:37:27.180Z,37.30
2023-06-09T10:38:27.222Z,37.32
2023-06-09T10:39:27.235Z,37.32
2023-06-09T10:40:27.228Z,37.30
2023-06-09T10:41:27.251Z,37.31
2023-06-09T10:42:27.279Z,37.28
2023-06-09T10:43:27.315Z,37.31
2023-06-09T10:44:27.307Z,37.30
2023-06-09T10:45:27.421Z,37.30
2023-06-09T10:46:27.410Z,37.29
2023-06-09T10:47:27.419Z,37.30
2023-06-09T10:48:27.394Z,37.30
2023-06-09T10:49:27.585Z,37.29
2023-06-09T10:50:27.399Z,37.29
2023-06-09T10:51:27.490Z,37.30
2023-06-09T10:52:27.458Z,37.30
2023-06-09T10:53:58.387Z,37.27
2023-06-09T10:54:58.406Z,37.27
2023-06-09T10:55:58.411Z,37.27
2023-06-09T10:56:58.387Z,37.30
2023-06-09T10:57:58.370Z,37.29
2023-06-09T10:58:58.342Z,37.27
2023-06-09T10:59:58.348Z,37.26
2023-06-09T11:00:58.343Z,37.25
2023-06-09T11:01:58.385Z,37.27
2023-06-09T11:02:58.428Z,37.25
2023-06-09T11:03:58.363Z,37.26
2023-06-09T11:04:58.306Z,37.27
2023-06-09T11:05:58.316Z,37.26
2023-06-09T11:06:58.273Z,37.27
2023-06-09T11:07:58.284Z,37.24
2023-06-09T11:08:58.297Z,37.27
2023-06-09T11:09:58.281Z,37.27
2023-06-09T11:10:58.265Z,37.27
2023-06-09T11:11:58.286Z,37.25
2023-06-09T11:12:58.308Z,37.27
2023-06-09T11:13:58.263Z,37.29
2023-06-09T11:14:58.249Z,37.25
2023-06-09T11:15:58.689Z,37.27
2023-06-09T11:16:58.231Z,37.28
2023-06-09T11:17:58.292Z,37.27
2023-06-09T11:18:58.310Z,37.25
2023-06-09T11:19:58.241Z,37.27
2023-06-09T11:20:58.225Z,37.27
2023-06-09T11:21:58.199Z,37.27
2023-06-09T11:22:58.220Z,37.25
2023-06-09T11:23:58.310Z,37.24
2023-06-09T11:24:58.219Z,37.27
2023-06-09T11:25:58.167Z,37.26
2023-06-09T11:26:58.154Z,37.26
2023-06-09T11:27:58.285Z,37.23
2023-06-09T11:28:58.188Z,37.24
2023-06-09T11:29:58.141Z,37.24
2023-06-09T11:30:58.141Z,37.23
2023-06-09T11:31:58.214Z,37.23
2023-06-09T11:32:58.148Z,37.23
2023-06-09T11:33:58.116Z,37.23
2023-06-09T11:34:58.127Z,37.23
2023-06-09T11:35:58.166Z,37.21
2023-06-09T11:36:58.269Z,37.23
2023-06-09T11:37:58.274Z,37.22
2023-06-09T11:38:58.340Z,37.24
2023-06-09T11:39:58.416Z,37.23
2023-06-09T11:40:58.475Z,37.21
2023-06-09T11:41:58.532Z,37.23
2023-06-09T11:42:58.577Z,37.21
2023-06-09T11:43:58.646Z,37.22
2023-06-09T11:44:58.654Z,37.22
2023-06-09T11:45:58.741Z,37.21
2023-06-09T11:46:58.758Z,37.20
2023-06-09T11:47:58.917Z,37.20
2023-06-09T11:48:58.862Z,37.21
2023-06-09T11:49:58.948Z,37.21
2023-06-09T11:50:58.964Z,37.21
2023-06-09T11:51:59.041Z,37.18
2023-06-09T11:52:59.060Z,37.19
2023-06-09T11:53:59.189Z,37.17
2023-06-09T11:54:59.194Z,37.19
2023-06-09T11:55:59.250Z,37.16
2023-06-09T11:56:59.308Z,37.17
2023-06-09T11:57:59.335Z,37.17
2023-06-09T11:58:59.371Z,37.15
2023-06-09T11:59:59.604Z,37.16
2023-06-09T12:00:59.485Z,37.16
2023-06-09T12:01:59.544Z,37.15
2023-06-09T12:02:59.639Z,37.15
2023-06-09T12:03:59.662Z,37.16
2023-06-09T12:04:59.701Z,37.17
2023-06-09T12:05:59.749Z,37.14
2023-06-09T12:06:59.774Z,37.12
2023-06-09T12:07:59.812Z,37.15
2023-06-09T12:08:59.871Z,37.13
2023-06-09T12:09:59.920Z,37.15
2023-06-09T12:10:59.941Z,37.14
2023-06-09T12:12:00.028Z,37.14
2023-06-09T12:13:00.055Z,37.14
2023-06-09T12:14:01.088Z,37.13
2023-06-09T12:15:00.154Z,37.12
2023-06-09T12:16:00.208Z,37.13
2023-06-09T12:17:00.339Z,37.11
2023-06-09T12:18:00.442Z,37.12
2023-06-09T12:19:00.330Z,37.12
2023-06-09T12:20:00.382Z,37.11
2023-06-09T12:21:00.440Z,37.12
2023-06-09T12:22:00.514Z,37.11
2023-06-09T12:23:03.063Z,37.12
2023-06-09T12:24:00.602Z,37.11
2023-06-09T12:25:00.513Z,37.10
2023-06-09T12:26:00.555Z,37.08
2023-06-09T12:27:00.523Z,37.07
2023-06-09T12:28:00.477Z,37.07
2023-06-09T12:29:00.477Z,37.07
2023-06-09T12:30:00.455Z,37.08
2023-06-09T12:31:00.473Z,37.07
2023-06-09T12:32:00.516Z,37.06
2023-06-09T12:33:00.599Z,37.04
2023-06-09T12:34:00.491Z,37.04
2023-06-09T12:35:00.497Z,37.03
2023-06-09T12:36:00.414Z,37.03
2023-06-09T12:37:00.451Z,37.02
2023-06-09T12:38:00.440Z,37.04
2023-06-09T12:39:00.418Z,37.01
2023-06-09T12:40:00.436Z,37.02
2023-06-09T12:41:00.379Z,37.02
2023-06-09T12:42:00.380Z,37.00
2023-06-09T12:43:00.350Z,37.00
2023-06-09T12:44:00.503Z,37.01
2023-06-09T12:45:00.391Z,37.00
2023-06-09T12:46:00.359Z,36.98
2023-06-09T12:47:00.343Z,37.00
2023-06-09T12:48:00.403Z,37.00
2023-06-09T12:49:00.340Z,37.00
2023-06-09T12:50:00.354Z,37.00
2023-06-09T12:51:00.298Z,37.00
2023-06-09T12:52:00.312Z,36.99
2023-06-09T12:53:00.287Z,37.02
2023-06-09T12:54:00.302Z,37.00